createdAt,value
2023-04-02T00:03:26.195Z,100.0
2023-04-02T00:09:45.451Z,100.0
2023-04-02T00:16:05.176Z,100.0
2023-04-02T00:22:23.954Z,100.0
2023-04-02T00:28:42.825Z,100.0
2023-04-02T00:35:01.873Z,100.0
2023-04-02T00:41:20.376Z,100.0
2023-04-02T00:52:04.164Z,100.0
2023-04-02T00:58:23.991Z,100.0
2023-04-02T01:09:47.786Z,100.0
2023-04-02T01:16:05.776Z,100.0
2023-04-02T01:23:18.889Z,100.0
2023-04-02T01:29:38.666Z,100.0
2023-04-02T01:38:03.868Z,100.0
2023-04-02T01:44:22.960Z,100.0
2023-04-02T01:50:41.944Z,100.0
2023-04-02T01:57:01.027Z,100.0
2023-04-02T02:03:20.196Z,100.0
2023-04-02T02:20:13.404Z,100.0
2023-04-02T02:26:36.495Z,100.0
2023-04-02T02:32:56.788Z,100.0
2023-04-02T02:39:15.804Z,100.0
2023-04-02T02:48:05.275Z,100.0
2023-04-02T02:54:23.715Z,100.0
2023-04-02T03:00:46.511Z,100.0
2023-04-02T03:12:39.813Z,100.0
2023-04-02T03:18:59.840Z,100.0
2023-04-02T03:25:19.138Z,100.0
2023-04-02T03:31:38.658Z,100.0
2023-04-02T03:37:58.786Z,100.0
2023-04-02T03:44:18.220Z,100.0
2023-04-02T03:50:36.947Z,100.0
2023-04-02T03:58:13.838Z,100.0
2023-04-02T04:04:34.519Z,100.0
2023-04-02T04:14:51.416Z,100.0
2023-04-02T04:21:10.853Z,100.0
2023-04-02T04:27:29.722Z,100.0
2023-04-02T04:33:48.472Z,100.0
2023-04-02T04:40:07.644Z,100.0
2023-04-02T04:50:36.896Z,100.0
2023-04-02T04:59:41.566Z,100.0
2023-04-02T05:06:00.160Z,100.0
2023-04-02T05:12:20.230Z,100.0
2023-04-02T05:18:41.445Z,100.0
2023-04-02T05:25:03.308Z,100.0
2023-04-02T05:33:16.302Z,100.0
2023-04-02T05:39:38.030Z,100.0
2023-04-02T05:45:59.258Z,100.0
2023-04-02T05:52:19.775Z,100.0
2023-04-02T05:59:51.207Z,100.0
2023-04-02T06:06:14.579Z,100.0
2023-04-02T06:12:35.887Z,100.0
2023-04-02T06:18:58.212Z,100.0
2023-04-02T06:25:19.616Z,100.0
2023-04-02T06:31:50.694Z,100.0
2023-04-02T06:43:54.908Z,100.0
2023-04-02T06:50:16.756Z,100.0
2023-04-02T06:56:38.832Z,100.0
2023-04-02T07:03:02.901Z,100.0
2023-04-02T07:09:27.898Z,100.0
2023-04-02T07:15:50.978Z,100.0
2023-04-02T07:22:14.187Z,100.0
2023-04-02T07:28:36.802Z,100.0
2023-04-02T07:41:20.826Z,100.0
2023-04-02T07:47:42.033Z,100.0
2023-04-02T07:54:03.005Z,100.0
2023-04-02T08:00:24.312Z,100.0
2023-04-02T08:06:46.299Z,100.0
2023-04-02T08:13:07.401Z,100.0
2023-04-02T08:19:28.203Z,100.0
2023-04-02T08:31:22.293Z,100.0
2023-04-02T08:37:43.365Z,100.0
2023-04-02T08:44:04.728Z,100.0
2023-04-02T08:50:24.394Z,90.05018099615603
2023-04-02T08:59:51.183Z,77.34924144544267
2023-04-02T09:06:10.613Z,90.10455031236947
2023-04-02T09:12:30.827Z,95.55507782455221
2023-04-02T09:18:52.482Z,100.0
2023-04-02T09:29:45.017Z,100.0
2023-04-02T09:37:00.733Z,100.0
2023-04-02T09:43:21.782Z,100.0
2023-04-02T09:49:51.475Z,100.0
2023-04-02T10:00:48.316Z,100.0
2023-04-02T10:07:09.632Z,100.0
2023-04-02T10:13:31.229Z,100.0
2023-04-02T10:20:00.010Z,100.0
2023-04-02T10:26:29.543Z,100.0
2023-04-02T10:33:10.230Z,100.0
2023-04-02T10:39:40.045Z,100.0
2023-04-02T10:46:04.242Z,100.0
2023-04-02T10:52:25.734Z,100.0
2023-04-02T10:58:47.068Z,100.0
2023-04-02T11:07:31.015Z,100.0
2023-04-02T11:16:44.019Z,100.0
2023-04-02T11:23:06.034Z,100.0
2023-04-02T11:29:27.393Z,100.0
2023-04-02T11:35:48.959Z,100.0
2023-04-02T11:42:10.641Z,100.0
2023-04-02T11:54:49.360Z,98.74903648692562
2023-04-02T12:01:10.041Z,98.14944790128548
2023-04-02T12:07:30.508Z,98.85593740574409
2023-04-02T12:13:51.708Z,99.56304262180258
2023-04-02T12:24:00.814Z,98.76700053610678
2023-04-02T12:30:20.897Z,97.49518951958127
2023-04-02T12:45:00.664Z,94.80940740090891
2023-04-02T12:51:21.248Z,95.46804366891149
2023-04-02T13:02:05.253Z,93.92151967488536
2023-04-02T13:12:48.035Z,93.99241543754614
2023-04-02T13:19:08.268Z,94.51863234106948
2023-04-02T13:25:27.738Z,95.61962771978968
2023-04-02T13:31:48.098Z,98.30278693531466
2023-04-02T13:38:07.954Z,95.76863092486238
2023-04-02T13:44:27.784Z,96.29459004671313
2023-04-02T13:50:47.696Z,93.35081264842722
2023-04-02T13:57:07.663Z,93.47395757599537
2023-04-02T14:05:21.080Z,96.51633971202774
2023-04-02T14:11:40.948Z,95.20210363039557
2023-04-02T14:20:43.639Z,95.91110110491935
2023-04-02T14:27:04.287Z,96.93531284215817
2023-04-02T14:33:24.130Z,95.87668373395482
2023-04-02T14:39:43.809Z,93.81543385507476
2023-04-02T14:48:56.302Z,95.80074237587421
2023-04-02T14:55:16.402Z,97.53254041301747
2023-04-02T15:01:36.858Z,95.7009570736283
2023-04-02T15:07:56.828Z,95.9942892035046
2023-04-02T15:14:17.398Z,95.26396243702939
2023-04-02T15:20:36.633Z,93.54038519458723
2023-04-02T15:26:56.166Z,94.15196726625102
2023-04-02T15:33:15.747Z,95.39600432246495
2023-04-02T15:39:34.938Z,95.77569544031785
2023-04-02T15:45:54.363Z,94.91053498049729
2023-04-02T15:52:14.732Z,98.20943536828406
2023-04-02T16:00:04.643Z,97.13493411049069
2023-04-02T16:13:10.771Z,98.21698025382142
2023-04-02T16:19:30.780Z,98.28133414380788
2023-04-02T16:25:50.724Z,98.42937305721574
2023-04-02T16:32:12.683Z,97.75017388988657
2023-04-02T16:38:32.352Z,97.9695234056569
2023-04-02T16:44:52.921Z,99.3075484855177
2023-04-02T16:51:14.238Z,99.67351551587542
2023-04-02T16:57:35.514Z,100.0
2023-04-02T17:04:00.966Z,100.0
2023-04-02T17:17:54.899Z,100.0
2023-04-02T17:24:16.618Z,100.0
2023-04-02T17:30:38.441Z,100.0
2023-04-02T17:37:00.347Z,100.0
2023-04-02T17:43:21.744Z,100.0
2023-04-02T17:49:43.464Z,100.0
2023-04-02T17:58:41.888Z,100.0
2023-04-02T18:05:04.231Z,100.0
2023-04-02T18:11:23.348Z,100.0
2023-04-02T18:17:42.481Z,100.0
2023-04-02T18:24:01.902Z,100.0
2023-04-02T18:34:55.601Z,100.0
2023-04-02T18:41:15.022Z,100.0
2023-04-02T18:47:33.888Z,100.0
2023-04-02T18:53:53.284Z,100.0
2023-04-02T19:00:13.706Z,100.0
2023-04-02T19:06:33.337Z,100.0
2023-04-02T19:20:16.981Z,100.0
2023-04-02T19:26:36.227Z,100.0
2023-04-02T19:32:56.660Z,100.0
2023-04-02T19:39:16.273Z,100.0
2023-04-02T19:45:36.327Z,100.0
2023-04-02T19:51:56.576Z,100.0
2023-04-02T20:08:15.745Z,100.0
2023-04-02T20:14:37.007Z,100.0
2023-04-02T20:20:57.815Z,100.0
2023-04-02T20:27:17.725Z,100.0
2023-04-02T20:33:38.151Z,100.0
2023-04-02T20:39:59.139Z,100.0
2023-04-02T20:51:21.043Z,100.0
2023-04-02T20:57:41.858Z,100.0
2023-04-02T21:04:01.720Z,100.0
2023-04-02T21:10:22.975Z,100.0
2023-04-02T21:16:44.782Z,100.0
2023-04-02T21:23:05.319Z,100.0
2023-04-02T21:29:26.752Z,100.0
2023-04-02T21:41:14.272Z,100.0
2023-04-02T21:47:35.308Z,100.0
2023-04-02T21:53:55.504Z,100.0
2023-04-02T22:00:16.453Z,100.0
2023-04-02T22:06:36.707Z,100.0
2023-04-02T22:12:56.808Z,100.0
2023-04-02T22:20:30.032Z,100.0
2023-04-02T22:26:51.187Z,100.0
2023-04-02T22:33:11.898Z,100.0
2023-04-02T22:44:58.532Z,100.0
2023-04-02T22:51:18.850Z,100.0
2023-04-02T22:57:39.346Z,100.0
2023-04-02T23:03:59.240Z,100.0
2023-04-02T23:10:21.436Z,100.0
2023-04-02T23:16:41.361Z,100.0
2023-04-02T23:23:02.953Z,100.0
2023-04-02T23:29:22.940Z,100.0
2023-04-02T23:35:42.743Z,100.0
2023-04-02T23:42:03.729Z,100.0
2023-04-02T23:48:22.792Z,100.0
2023-04-02T23:54:42.842Z,100.0
